This is the latest recevied weather packets stored in our database for station/object KB0RPJ. If no packets are shown the sender has not sent any weather packets the latest 1 day(s).
| Time | Temp. | Humidity | Pressure | Rain* | Wind** | Luminosity | Snow |
|---|---|---|---|---|---|---|---|
| 1778088606 | 12.22° C | 38% | 1018.9 hPa | 0 mm | - | 466 W/m² | - |
| 1778085905 | 12.22° C | 38% | 1018.9 hPa | 0 mm | - | 637 W/m² | - |
| 1778085605 | 11.67° C | 40% | 1018.9 hPa | 0 mm | - | 689 W/m² | - |
| 1778085005 | 12.22° C | 41% | 1019 hPa | 0 mm | - | 625 W/m² | - |
| 1778084105 | 11.67° C | 42% | 1018.8 hPa | 0 mm | - | 629 W/m² | - |
| 1778083805 | 12.22° C | 38% | 1018.8 hPa | 0 mm | - | 633 W/m² | - |
| 1778082021 | 11.11° C | 44% | 1018.3 hPa | 0 mm | - | 597 W/m² | - |
| 1778079605 | 10.56° C | 47% | 1018.3 hPa | 0 mm | - | 368 W/m² | - |
| 1778077205 | 9.44° C | 51% | 1018 hPa | 0 mm | - | 240 W/m² | - |
| 1778076005 | 8.89° C | 53% | 1017.9 hPa | 0 mm | - | 180 W/m² | - |
| 1778075105 | 8.89° C | 54% | 1017.7 hPa | 0 mm | - | 175 W/m² | - |
| 1778074805 | 8.33° C | 56% | 1017.6 hPa | 0 mm | - | 184 W/m² | - |
| 1778071807 | 7.78° C | 59% | 1017.1 hPa | 0 mm | - | 121 W/m² | - |
| 1778071205 | 7.78° C | 60% | 1016.9 hPa | 0 mm | - | 123 W/m² | - |
| 1778070905 | 7.78° C | 59% | 1016.9 hPa | 0 mm | - | 109 W/m² | - |
| 1778070305 | 7.78° C | 58% | 1016.6 hPa | 0 mm | - | 82 W/m² | - |
| 1778066705 | 7.78° C | 58% | 1016.1 hPa | 0 mm | - | 7 W/m² | - |
| 1778065806 | 7.78° C | 57% | 1016 hPa | 0 mm | - | 1 W/m² | - |
| 1778065505 | 7.78° C | 57% | 1016 hPa | 0 mm | - | 0 W/m² | - |
| 1778064608 | 7.78° C | 57% | 1015.9 hPa | 0 mm | - | 0 W/m² | - |
| 1778064305 | 7.78° C | 57% | 1015.8 hPa | 0 mm | - | 0 W/m² | - |
| 1778064005 | 7.78° C | 57% | 1015.6 hPa | 0 mm | - | 0 W/m² | - |
| 1778063405 | 7.78° C | 56% | 1015.2 hPa | 0 mm | - | 0 W/m² | - |
| 1778062806 | 8.33° C | 56% | 1015.2 hPa | 0 mm | - | 0 W/m² | - |
| 1778061905 | 8.33° C | 55% | 1015.2 hPa | 0 mm | - | 0 W/m² | - |
* Rain latest hour (hover to see other rain measurements)
** Current wind speed in m/s (hover to see current wind gust speed)